createdAt,value
2016-10-02T00:01:02.860Z,57.24
2016-10-02T00:02:12.848Z,57.06
2016-10-02T00:03:23.127Z,56.86
2016-10-02T00:04:33.426Z,56.96
2016-10-02T00:05:43.407Z,57.24
2016-10-02T00:06:53.707Z,56.86
2016-10-02T00:08:03.699Z,56.96
2016-10-02T00:09:13.991Z,56.96
2016-10-02T00:10:23.997Z,57.06
2016-10-02T00:11:33.971Z,56.96
2016-10-02T00:12:43.940Z,57.24
2016-10-02T00:13:54.223Z,56.86
2016-10-02T00:15:03.900Z,57.15
2016-10-02T00:16:13.882Z,57.06
2016-10-02T00:17:23.867Z,57.24
2016-10-02T00:18:34.152Z,56.86
2016-10-02T00:19:43.846Z,57.06
2016-10-02T00:20:53.519Z,57.15
2016-10-02T00:22:03.820Z,56.86
2016-10-02T00:23:14.114Z,56.86
2016-10-02T00:24:23.798Z,57.24
2016-10-02T00:25:33.782Z,56.96
2016-10-02T00:26:43.772Z,57.43
2016-10-02T00:27:53.759Z,57.34
2016-10-02T00:29:04.057Z,57.79
2016-10-02T00:30:14.354Z,57.6
2016-10-02T00:31:24.368Z,57.7
2016-10-02T00:32:34.347Z,57.7
2016-10-02T00:33:44.662Z,57.7
2016-10-02T00:34:54.369Z,57.7
2016-10-02T00:36:04.644Z,57.7
2016-10-02T00:37:14.636Z,57.5
2016-10-02T00:38:24.625Z,57.7
2016-10-02T00:39:34.916Z,57.5
2016-10-02T00:40:45.203Z,57.5
2016-10-02T00:41:55.203Z,57.41
2016-10-02T00:43:05.500Z,57.6
2016-10-02T00:44:15.790Z,57.41
2016-10-02T00:45:25.790Z,57.41
2016-10-02T00:46:35.765Z,57.41
2016-10-02T00:47:46.052Z,57.79
2016-10-02T00:48:56.059Z,57.6
2016-10-02T00:50:06.364Z,57.5
2016-10-02T00:51:16.683Z,57.41
2016-10-02T00:52:26.664Z,57.79
2016-10-02T00:53:36.980Z,57.79
2016-10-02T00:54:47.200Z,57.31
2016-10-02T00:55:57.484Z,57.5
2016-10-02T00:57:07.465Z,57.41
2016-10-02T00:58:17.763Z,57.41
2016-10-02T00:59:27.755Z,57.6
2016-10-02T01:00:38.062Z,57.41
2016-10-02T01:01:47.733Z,57.31
2016-10-02T01:02:57.740Z,57.41
2016-10-02T01:04:08.044Z,57.79
2016-10-02T01:05:18.323Z,57.31
2016-10-02T01:06:28.302Z,57.5
2016-10-02T01:07:38.594Z,57.21
2016-10-02T01:08:48.878Z,57.41
2016-10-02T01:09:59.170Z,57.5
2016-10-02T01:11:09.159Z,57.5
2016-10-02T01:12:18.828Z,57.53
2016-10-02T01:13:29.114Z,57.31
2016-10-02T01:14:39.138Z,57.41
2016-10-02T01:15:49.424Z,57.6
2016-10-02T01:16:59.400Z,57.12
2016-10-02T01:18:09.371Z,57.53
2016-10-02T01:19:19.044Z,57.43
2016-10-02T01:25:47.893Z,57.34
2016-10-02T01:26:58.206Z,57.41
2016-10-02T01:28:07.868Z,57.41
2016-10-02T01:29:17.858Z,57.79
2016-10-02T01:30:28.154Z,57.31
2016-10-02T01:31:38.443Z,57.63
2016-10-02T01:32:48.427Z,57.6
2016-10-02T01:33:58.721Z,57.24
2016-10-02T01:35:08.724Z,57.79
2016-10-02T01:36:19.051Z,57.31
2016-10-02T01:37:29.337Z,57.41
2016-10-02T01:38:39.645Z,57.31
2016-10-02T01:39:49.655Z,57.53
2016-10-02T01:40:59.637Z,57.43
2016-10-02T01:42:09.619Z,57.63
2016-10-02T01:43:19.906Z,57.63
2016-10-02T01:44:29.876Z,57.63
2016-10-02T01:45:39.854Z,57.63
2016-10-02T01:46:50.136Z,57.43
2016-10-02T01:47:59.818Z,57.53
2016-10-02T01:49:10.109Z,57.63
2016-10-02T01:50:20.087Z,57.63
2016-10-02T01:51:30.078Z,57.72
2016-10-02T01:52:40.062Z,57.43
2016-10-02T01:53:49.751Z,57.43
2016-10-02T01:54:59.752Z,57.43
2016-10-02T01:56:10.045Z,57.63
2016-10-02T01:57:20.025Z,57.63
2016-10-02T01:58:30.313Z,57.34
2016-10-02T01:59:40.600Z,57.34
2016-10-02T02:00:50.266Z,57.43
2016-10-02T02:01:59.923Z,57.34
2016-10-02T02:03:10.215Z,57.34
2016-10-02T02:04:20.512Z,57.53
2016-10-02T02:05:30.802Z,57.53
2016-10-02T02:06:40.784Z,57.34
2016-10-02T02:07:50.752Z,57.53
2016-10-02T02:09:00.719Z,57.34
2016-10-02T02:10:11.014Z,57.72
2016-10-02T02:11:21.311Z,57.34
2016-10-02T02:12:31.609Z,57.43
2016-10-02T02:13:41.904Z,57.34
2016-10-02T02:14:51.886Z,57.53
2016-10-02T02:16:02.176Z,57.53
2016-10-02T02:17:12.470Z,57.53
2016-10-02T02:18:22.456Z,57.43
2016-10-02T02:19:32.429Z,57.34
2016-10-02T02:20:42.407Z,57.34
2016-10-02T02:21:52.688Z,57.63
2016-10-02T02:23:02.999Z,57.82
2016-10-02T02:24:12.975Z,57.82
2016-10-02T02:25:23.286Z,57.82
2016-10-02T02:26:33.570Z,57.34
2016-10-02T02:27:43.862Z,57.43
2016-10-02T02:28:54.144Z,57.43
2016-10-02T02:30:04.158Z,57.53
2016-10-02T02:31:14.147Z,57.72
2016-10-02T02:32:24.124Z,57.63
2016-10-02T02:33:34.421Z,57.24
2016-10-02T02:34:44.396Z,57.43
2016-10-02T02:35:54.681Z,57.24
2016-10-02T02:37:04.668Z,57.53
2016-10-02T02:38:14.041Z,57.53
2016-10-02T02:39:24.021Z,57.63
2016-10-02T02:40:33.695Z,57.43
2016-10-02T02:41:43.360Z,57.53
2016-10-02T02:42:53.349Z,57.43
2016-10-02T02:44:03.328Z,57.43
2016-10-02T02:45:12.999Z,57.43
2016-10-02T02:46:22.974Z,57.43
2016-10-02T02:47:32.941Z,57.43
2016-10-02T02:48:42.612Z,57.53
2016-10-02T02:49:52.891Z,57.63
2016-10-02T02:51:03.181Z,57.53
2016-10-02T02:52:13.467Z,57.53
2016-10-02T02:53:23.455Z,57.53
2016-10-02T02:54:33.765Z,57.43
2016-10-02T02:55:44.051Z,57.72
2016-10-02T02:56:54.352Z,57.43
2016-10-02T02:58:04.032Z,57.43
2016-10-02T02:59:14.025Z,57.34
2016-10-02T03:00:24.314Z,57.53
2016-10-02T03:32:27.868Z,56.09
2016-10-02T03:33:37.864Z,56.28
2016-10-02T03:34:48.136Z,57.43
2016-10-02T03:35:58.102Z,58.29
2016-10-02T03:37:08.088Z,58.58
2016-10-02T03:38:18.387Z,59.15
2016-10-02T03:39:28.671Z,58.8
2016-10-02T03:40:38.655Z,58.89
2016-10-02T03:41:48.664Z,58.89
2016-10-02T03:42:58.651Z,58.89
2016-10-02T03:44:08.929Z,58.89
2016-10-02T03:45:19.214Z,59.11
2016-10-02T03:46:29.513Z,58.83
2016-10-02T03:47:39.814Z,58.92
2016-10-02T03:48:49.790Z,58.95
2016-10-02T03:49:59.458Z,58.95
2016-10-02T03:51:09.750Z,58.76
2016-10-02T03:52:19.415Z,58.66
2016-10-02T03:53:29.707Z,58.59
2016-10-02T03:54:39.089Z,58.5
2016-10-02T03:55:49.074Z,58.59
2016-10-02T03:56:59.358Z,58.59
2016-10-02T03:58:09.634Z,57.95
2016-10-02T03:59:19.616Z,58.15
2016-10-02T04:00:29.597Z,58.24
2016-10-02T04:01:39.866Z,58.05
2016-10-02T04:02:50.176Z,57.95
2016-10-02T04:04:00.455Z,57.86
2016-10-02T04:05:10.747Z,57.48
2016-10-02T04:06:21.052Z,57.38
2016-10-02T04:07:30.727Z,57.67
2016-10-02T04:08:41.015Z,57.7
2016-10-02T04:09:50.686Z,57.7
2016-10-02T04:10:59.752Z,57.31
2016-10-02T04:12:09.734Z,57.7
2016-10-02T04:13:19.741Z,57.03
2016-10-02T04:14:29.429Z,57.12
2016-10-02T04:15:39.411Z,57.5
2016-10-02T04:16:49.713Z,57.5
2016-10-02T04:18:00.004Z,57.31
2016-10-02T04:19:10.288Z,57.5
2016-10-02T04:20:20.269Z,57.31
2016-10-02T04:21:30.564Z,57.03
2016-10-02T04:22:40.534Z,57.79
2016-10-02T04:23:50.822Z,57.21
2016-10-02T04:25:00.814Z,57.79
2016-10-02T04:26:10.476Z,57.7
2016-10-02T04:27:20.467Z,57.89
2016-10-02T04:28:30.140Z,57.79
2016-10-02T04:29:40.122Z,57.79
2016-10-02T04:30:50.099Z,57.41
2016-10-02T04:31:59.793Z,57.31
2016-10-02T04:33:09.781Z,57.31
2016-10-02T04:34:19.463Z,57.5
2016-10-02T04:35:29.439Z,57.5
2016-10-02T04:36:39.740Z,57.5
2016-10-02T04:37:49.713Z,57.5
2016-10-02T04:38:59.684Z,57.21
2016-10-02T04:40:09.977Z,57.21
2016-10-02T04:41:20.263Z,57.79
2016-10-02T04:42:30.552Z,57.21
2016-10-02T04:43:39.617Z,57.21
2016-10-02T04:44:49.299Z,57.7
2016-10-02T04:45:59.274Z,57.03
2016-10-02T04:47:09.261Z,57.31
2016-10-02T04:48:19.240Z,57.5
2016-10-02T04:49:28.919Z,57.5
2016-10-02T04:50:38.907Z,57.5
2016-10-02T04:51:49.196Z,57.5
2016-10-02T04:52:59.506Z,57.41
2016-10-02T04:54:09.812Z,57.41
2016-10-02T04:55:19.492Z,57.31
2016-10-02T04:56:29.461Z,57.41
2016-10-02T04:57:39.746Z,57.31
2016-10-02T04:58:49.433Z,57.41
2016-10-02T04:59:59.717Z,57.21
2016-10-02T05:01:10.004Z,57.5
2016-10-02T05:02:19.684Z,57.5
2016-10-02T05:03:29.675Z,57.41
2016-10-02T05:04:39.362Z,57.41
2016-10-02T05:05:49.651Z,57.6
2016-10-02T05:06:59.952Z,57.5
2016-10-02T05:08:09.942Z,57.6
2016-10-02T05:09:20.250Z,57.6
2016-10-02T05:10:30.530Z,57.31
2016-10-02T05:11:40.513Z,57.21
2016-10-02T05:12:50.479Z,57.03
2016-10-02T05:14:00.467Z,57.24
2016-10-02T05:15:10.477Z,57.15
2016-10-02T05:16:20.764Z,57.15
2016-10-02T05:17:30.735Z,57.06
2016-10-02T05:18:40.094Z,57.06
2016-10-02T05:19:50.379Z,57.06
2016-10-02T05:21:00.061Z,56.86
2016-10-02T05:22:10.355Z,56.96
2016-10-02T05:23:20.653Z,57.06
2016-10-02T05:24:30.941Z,56.86
2016-10-02T05:25:40.921Z,56.76
2016-10-02T05:26:51.249Z,57.06
2016-10-02T05:28:01.235Z,57.15
2016-10-02T05:29:11.216Z,56.86
2016-10-02T05:30:21.498Z,56.98
2016-10-02T05:31:30.864Z,57.28
2016-10-02T05:32:40.846Z,56.98
2016-10-02T05:33:50.517Z,56.51
2016-10-02T05:35:00.815Z,56.6
2016-10-02T05:36:10.516Z,56.51
2016-10-02T05:37:20.519Z,56.51
2016-10-02T05:38:30.497Z,56.51
2016-10-02T05:39:40.525Z,56.63
2016-10-02T05:40:50.817Z,56.63
2016-10-02T05:42:00.493Z,56.63
2016-10-02T05:43:10.845Z,56.44
2016-10-02T05:44:20.827Z,57.3
2016-10-02T05:45:31.129Z,57.01
2016-10-02T05:46:41.425Z,57.01
2016-10-02T05:47:51.712Z,57.11
2016-10-02T05:49:02.005Z,56.92
2016-10-02T05:50:12.286Z,57.3
2016-10-02T05:51:21.651Z,57.01
2016-10-02T05:52:31.636Z,57.01
2016-10-02T05:53:41.625Z,57.21
2016-10-02T05:54:51.611Z,56.92
2016-10-02T05:56:01.908Z,57.01
2016-10-02T05:57:12.220Z,57.01
2016-10-02T05:58:22.201Z,57.01
2016-10-02T05:59:32.177Z,57.01
2016-10-02T06:00:42.494Z,57.21
2016-10-02T06:01:52.792Z,57.11
2016-10-02T06:03:02.794Z,57.01
2016-10-02T06:04:12.460Z,57.01
2016-10-02T06:05:22.137Z,57.01
2016-10-02T06:06:31.507Z,56.95
2016-10-02T06:07:41.499Z,57.33
2016-10-02T06:08:51.791Z,57.21
2016-10-02T06:10:01.158Z,56.66
2016-10-02T06:11:11.449Z,56.46
2016-10-02T06:12:21.739Z,56.85
2016-10-02T06:13:31.725Z,56.66
2016-10-02T06:14:41.715Z,56.56
2016-10-02T06:15:51.690Z,56.56
2016-10-02T06:17:01.673Z,56.46
2016-10-02T06:18:11.645Z,56.46
2016-10-02T06:19:21.869Z,56.66
2016-10-02T06:20:31.854Z,56.56
2016-10-02T06:21:42.149Z,56.66
2016-10-02T06:22:52.417Z,56.56
2016-10-02T06:24:02.104Z,56.66
2016-10-02T06:25:11.784Z,56.78
2016-10-02T06:26:22.075Z,56.59
2016-10-02T06:27:32.054Z,56.88
2016-10-02T06:28:41.747Z,57.36
2016-10-02T06:29:52.028Z,56.98
2016-10-02T06:31:02.016Z,57.17
2016-10-02T06:32:11.985Z,57.26
2016-10-02T06:33:22.267Z,57.17
2016-10-02T06:34:31.974Z,57.36
2016-10-02T06:35:42.263Z,56.49
2016-10-02T06:36:52.253Z,56.49
2016-10-02T06:38:02.256Z,56.68
2016-10-02T06:39:12.242Z,56.4
2016-10-02T06:40:22.519Z,56.23
2016-10-02T06:41:32.814Z,56.23
2016-10-02T06:42:43.105Z,56.23
2016-10-02T06:43:52.764Z,56.43
2016-10-02T06:45:02.785Z,56.23
2016-10-02T06:46:12.447Z,56.23
2016-10-02T06:47:22.733Z,56.14
2016-10-02T06:48:32.416Z,56.62
2016-10-02T06:49:42.722Z,56.65
2016-10-02T06:50:52.725Z,56.65
2016-10-02T06:52:03.015Z,56.55
2016-10-02T06:53:13.013Z,56.55
2016-10-02T06:54:23.324Z,56.65
2016-10-02T06:55:33.003Z,56.65
2016-10-02T06:56:42.992Z,56.65
2016-10-02T06:57:52.969Z,56.38
2016-10-02T06:59:03.268Z,56.1
2016-10-02T07:00:13.246Z,56
2016-10-02T07:01:23.560Z,55.9
2016-10-02T07:02:33.264Z,55.81
2016-10-02T07:03:43.263Z,56.1
2016-10-02T07:04:53.256Z,56.67
2016-10-02T07:06:02.916Z,56.67
2016-10-02T07:07:12.587Z,56.58
2016-10-02T07:08:22.890Z,56.48
2016-10-02T07:09:32.867Z,56.7
2016-10-02T07:10:43.164Z,56.03
2016-10-02T07:11:53.460Z,55.93
2016-10-02T07:13:03.453Z,56.25
2016-10-02T07:14:13.462Z,56.05
2016-10-02T07:15:23.445Z,56.15
2016-10-02T07:16:33.728Z,55.87
2016-10-02T07:17:43.413Z,55.89
2016-10-02T07:18:53.711Z,55.6
2016-10-02T07:20:03.717Z,55.7
2016-10-02T07:21:14.020Z,55.89
2016-10-02T07:22:24.311Z,55.31
2016-10-02T07:23:34.305Z,55.41
2016-10-02T07:24:44.606Z,55.34
2016-10-02T07:25:54.915Z,55.44
2016-10-02T07:27:04.910Z,55.63
2016-10-02T07:28:15.204Z,55.44
2016-10-02T07:29:25.180Z,55.92
2016-10-02T07:30:35.469Z,55.63
2016-10-02T07:31:45.766Z,55.92
2016-10-02T07:32:56.059Z,56.01
2016-10-02T07:34:06.358Z,55.82
2016-10-02T07:35:16.657Z,55.82
2016-10-02T07:36:26.343Z,56.4
2016-10-02T07:37:36.336Z,56.21
2016-10-02T07:38:46.345Z,56.01
2016-10-02T07:39:56.347Z,56.01
2016-10-02T07:41:06.654Z,56.3
2016-10-02T07:42:16.637Z,55.63
2016-10-02T07:43:26.321Z,55.76
2016-10-02T07:44:36.316Z,55.56
2016-10-02T07:45:45.993Z,56.24
2016-10-02T07:46:56.279Z,55.85
2016-10-02T07:48:05.965Z,55.94
2016-10-02T07:49:15.664Z,56.04
2016-10-02T07:50:25.663Z,55.88
2016-10-02T07:51:35.964Z,55.94
2016-10-02T07:52:46.316Z,56.24
2016-10-02T07:53:56.305Z,55.66
2016-10-02T07:55:06.287Z,55.88
2016-10-02T07:56:16.277Z,56.36
2016-10-02T07:57:26.259Z,56.36
2016-10-02T07:58:36.583Z,56.07
2016-10-02T07:59:45.993Z,56.26
2016-10-02T08:00:55.690Z,55.98
2016-10-02T08:02:05.994Z,56.26
2016-10-02T08:03:15.997Z,55.88
2016-10-02T08:04:25.665Z,55.88
2016-10-02T08:05:35.985Z,55.88
2016-10-02T08:06:45.952Z,56.07
2016-10-02T08:07:56.255Z,56.16
2016-10-02T08:09:06.556Z,55.88
2016-10-02T08:10:16.539Z,55.98
2016-10-02T08:11:26.837Z,56.2
2016-10-02T08:12:36.837Z,55.98
2016-10-02T08:13:47.188Z,56
2016-10-02T08:14:57.182Z,55.88
2016-10-02T08:16:07.187Z,56.29
2016-10-02T08:17:17.188Z,55.71
2016-10-02T08:18:27.171Z,56.26
2016-10-02T08:19:37.462Z,55.98
2016-10-02T08:20:47.458Z,56.16
2016-10-02T08:21:57.132Z,56.48
2016-10-02T08:23:07.428Z,56.56
2016-10-02T08:24:17.437Z,56.68
2016-10-02T08:25:27.431Z,56.58
2016-10-02T08:26:37.732Z,56.48
2016-10-02T08:27:48.009Z,56.58
2016-10-02T08:28:58.014Z,56.58
2016-10-02T08:30:08.072Z,56.77
2016-10-02T08:31:18.382Z,56.77
2016-10-02T08:32:28.675Z,56.07
2016-10-02T08:33:38.676Z,56.77
2016-10-02T08:34:48.985Z,56.68
2016-10-02T08:35:59.281Z,56.77
2016-10-02T08:37:09.568Z,56.46
2016-10-02T08:38:19.879Z,56.16
2016-10-02T08:39:29.900Z,56
2016-10-02T08:40:40.209Z,56.07
2016-10-02T08:41:50.187Z,56.74
2016-10-02T08:43:00.481Z,56.77
2016-10-02T08:44:10.164Z,56.77
2016-10-02T08:45:20.173Z,56.77
2016-10-02T08:46:30.466Z,56.58
2016-10-02T08:47:40.457Z,56.58
2016-10-02T08:48:50.454Z,56.68
2016-10-02T08:50:00.473Z,56.65
2016-10-02T08:51:10.783Z,56.68
2016-10-02T08:52:21.088Z,56.58
2016-10-02T08:53:31.087Z,56.29
2016-10-02T08:54:41.376Z,56.48
2016-10-02T08:55:50.737Z,56.87
2016-10-02T08:57:01.037Z,56.77
2016-10-02T08:58:11.262Z,56.77
2016-10-02T08:59:21.269Z,56.58
2016-10-02T09:00:31.591Z,56.2
2016-10-02T09:01:41.283Z,56.29
2016-10-02T09:02:51.596Z,56.13
2016-10-02T09:04:01.630Z,56.32
2016-10-02T09:05:11.922Z,56.13
2016-10-02T09:06:22.236Z,56.03
2016-10-02T09:07:32.219Z,56.03
2016-10-02T09:08:42.435Z,55.96
2016-10-02T09:09:52.716Z,56.25
2016-10-02T09:11:02.693Z,56.25
2016-10-02T09:12:12.674Z,55.57
2016-10-02T09:13:22.975Z,55.67
2016-10-02T09:14:33.518Z,55.96
2016-10-02T09:15:43.520Z,56.05
2016-10-02T09:16:53.849Z,56.45
2016-10-02T09:18:03.837Z,56.05
2016-10-02T09:19:14.143Z,56.35
2016-10-02T09:20:24.455Z,56.09
2016-10-02T09:21:34.463Z,56.57
2016-10-02T09:22:44.463Z,56.76
2016-10-02T09:23:54.767Z,56.18
2016-10-02T09:25:05.058Z,56.54
2016-10-02T09:26:15.352Z,56.25
2016-10-02T09:27:25.664Z,56.37
2016-10-02T09:28:35.973Z,57.21
2016-10-02T09:29:46.272Z,57.12
2016-10-02T09:30:55.965Z,56.93
2016-10-02T09:32:06.259Z,57.03
2016-10-02T09:33:16.270Z,56.83
2016-10-02T09:34:26.286Z,56.35
2016-10-02T09:35:36.279Z,56.54
2016-10-02T09:36:45.952Z,56.54
2016-10-02T09:37:55.639Z,57.03
2016-10-02T09:39:05.272Z,56.83
2016-10-02T09:40:17.274Z,56.93
2016-10-02T09:41:27.569Z,56.83
2016-10-02T09:42:37.557Z,56.9
2016-10-02T09:43:47.559Z,57.48
2016-10-02T09:44:57.561Z,57.29
2016-10-02T09:46:07.862Z,57.29
2016-10-02T09:47:17.872Z,57.67
2016-10-02T09:48:27.861Z,57.29
2016-10-02T09:49:37.837Z,57.38
2016-10-02T09:50:48.169Z,57.48
2016-10-02T09:51:58.147Z,57.29
2016-10-02T09:53:08.492Z,57.54
2016-10-02T09:54:18.487Z,57.45
2016-10-02T09:55:28.519Z,57.26
2016-10-02T09:56:38.534Z,57.35
2016-10-02T09:57:48.531Z,57.35
2016-10-02T09:58:58.825Z,57.16
2016-10-02T10:00:08.823Z,57.35
2016-10-02T10:01:18.850Z,57.26
2016-10-02T10:02:28.863Z,57.45
2016-10-02T10:03:39.169Z,57.64
2016-10-02T10:04:49.496Z,57.54
2016-10-02T10:05:59.803Z,57.45
2016-10-02T10:07:09.808Z,57.45
2016-10-02T10:08:19.490Z,57.54
2016-10-02T10:09:29.467Z,57.64
2016-10-02T10:10:39.474Z,57.35
2016-10-02T10:11:49.455Z,57.26
2016-10-02T10:12:59.741Z,57.35
2016-10-02T10:14:09.736Z,57.14
2016-10-02T10:15:20.052Z,57.32
2016-10-02T10:16:30.345Z,57.23
2016-10-02T10:17:40.639Z,57.71
2016-10-02T10:18:50.924Z,57.71
2016-10-02T10:20:00.911Z,58
2016-10-02T10:21:10.598Z,57.87
2016-10-02T10:22:20.580Z,57.59
2016-10-02T10:23:30.888Z,58.17
2016-10-02T10:24:41.208Z,57.68
2016-10-02T10:25:50.890Z,57.87
2016-10-02T10:27:00.559Z,57.78
2016-10-02T10:28:10.554Z,57.78
2016-10-02T10:29:20.260Z,57.49
2016-10-02T10:30:30.259Z,57.87
2016-10-02T10:31:40.563Z,58.23
2016-10-02T10:32:50.570Z,58.23
2016-10-02T10:34:00.575Z,58.88
2016-10-02T10:35:10.267Z,58.88
2016-10-02T10:36:20.268Z,58.88
2016-10-02T10:37:30.589Z,58.85
2016-10-02T10:38:40.578Z,58.65
2016-10-02T10:39:50.589Z,58.95
2016-10-02T10:41:00.883Z,58.75
2016-10-02T10:42:11.206Z,58.95
2016-10-02T10:43:21.516Z,58.92
2016-10-02T10:44:31.548Z,58.15
2016-10-02T10:45:41.769Z,58.53
2016-10-02T10:46:51.752Z,58.34
2016-10-02T10:48:01.747Z,58.44
2016-10-02T10:49:11.742Z,58.24
2016-10-02T10:50:21.756Z,58.05
2016-10-02T10:51:31.459Z,58.34
2016-10-02T10:52:41.464Z,57.89
2016-10-02T10:53:51.464Z,57.5
2016-10-02T10:55:01.153Z,57.79
2016-10-02T10:56:11.466Z,57.69
2016-10-02T10:57:21.450Z,57.12
2016-10-02T10:58:31.438Z,57.24
2016-10-02T10:59:41.761Z,56.85
2016-10-02T11:00:52.051Z,57.14
2016-10-02T11:02:01.437Z,57.05
2016-10-02T11:03:10.825Z,56.85
2016-10-02T11:04:21.130Z,56.69
2016-10-02T11:05:31.147Z,56.79
2016-10-02T11:06:40.852Z,56.59
2016-10-02T11:07:51.156Z,56.49
2016-10-02T11:09:01.447Z,56.81
2016-10-02T11:10:11.421Z,56.81
2016-10-02T11:11:21.396Z,56.52
2016-10-02T11:12:31.373Z,56.62
2016-10-02T11:13:41.678Z,56.16
2016-10-02T11:14:51.649Z,56.16
2016-10-02T11:16:01.359Z,56.46
2016-10-02T11:17:11.366Z,56.26
2016-10-02T11:18:21.363Z,56.56
2016-10-02T11:19:31.647Z,56.48
2016-10-02T11:20:41.621Z,56.2
2016-10-02T11:21:51.928Z,55.71
2016-10-02T11:23:01.917Z,56.03
2016-10-02T11:24:12.215Z,56.03
2016-10-02T11:25:22.502Z,55.83
2016-10-02T11:26:32.814Z,55.93
2016-10-02T11:27:42.823Z,55.93
2016-10-02T11:28:53.147Z,55.93
2016-10-02T11:30:03.149Z,55.93
2016-10-02T11:31:13.135Z,56.22
2016-10-02T11:32:23.455Z,55.93
2016-10-02T11:33:33.795Z,56.15
2016-10-02T11:34:43.473Z,55.96
2016-10-02T11:35:53.160Z,55.96
2016-10-02T11:37:02.866Z,55.77
2016-10-02T11:38:13.207Z,55.67
2016-10-02T11:39:22.927Z,56.05
2016-10-02T11:40:33.281Z,56.05
2016-10-02T11:41:43.283Z,56.05
2016-10-02T11:42:53.269Z,55.96
2016-10-02T11:44:03.269Z,55.89
2016-10-02T11:45:13.264Z,56.18
2016-10-02T11:46:23.572Z,55.89
2016-10-02T11:47:32.944Z,55.89
2016-10-02T11:48:42.628Z,55.7
2016-10-02T11:49:52.943Z,55.92
2016-10-02T11:51:03.243Z,55.63
2016-10-02T11:52:13.250Z,55.82
2016-10-02T11:53:22.633Z,55.82
2016-10-02T11:54:32.633Z,55.82
2016-10-02T11:55:42.958Z,55.92
2016-10-02T11:56:52.942Z,55.63
2016-10-02T11:58:02.323Z,55.82
2016-10-02T11:59:12.641Z,55.73
2016-10-02T12:00:22.368Z,55.82
2016-10-02T12:01:32.675Z,55.92
2016-10-02T12:02:42.984Z,55.92
2016-10-02T12:03:53.392Z,55.82
2016-10-02T12:05:03.711Z,56.11
2016-10-02T12:06:14.014Z,55.76
2016-10-02T12:07:24.026Z,55.63
2016-10-02T12:08:34.019Z,55.73
2016-10-02T12:09:44.014Z,56.02
2016-10-02T12:10:53.697Z,56.11
2016-10-02T12:12:04.025Z,56.21
2016-10-02T12:13:14.343Z,56.21
2016-10-02T12:14:24.338Z,56.11
2016-10-02T12:15:34.030Z,56.11
2016-10-02T12:16:44.154Z,56.02
2016-10-02T12:17:53.841Z,56.11
2016-10-02T12:19:04.156Z,56.02
2016-10-02T12:20:14.457Z,56.3
2016-10-02T12:21:25.047Z,56.11
2016-10-02T12:22:35.052Z,55.89
2016-10-02T12:23:45.373Z,56.37
2016-10-02T12:24:55.694Z,56.18
2016-10-02T12:26:05.692Z,56.57
2016-10-02T12:27:15.060Z,56.09
2016-10-02T12:28:25.377Z,56.37
2016-10-02T12:29:35.679Z,56.47
2016-10-02T12:30:45.994Z,56.28
2016-10-02T12:31:55.978Z,56.28
2016-10-02T12:33:06.287Z,56.18
2016-10-02T12:34:15.959Z,56.47
2016-10-02T12:35:25.953Z,56.95
2016-10-02T12:36:36.263Z,56.95
2016-10-02T12:37:46.255Z,56.86
2016-10-02T12:38:56.546Z,56.95
2016-10-02T12:40:06.859Z,56.76
2016-10-02T12:41:17.170Z,56.86
2016-10-02T12:42:27.176Z,56.95
2016-10-02T12:43:36.869Z,56.76
2016-10-02T12:44:46.882Z,56.95
2016-10-02T12:45:56.865Z,56.86
2016-10-02T12:47:06.868Z,56.86
2016-10-02T12:48:17.173Z,56.95
2016-10-02T12:49:27.491Z,56.54
2016-10-02T12:50:37.777Z,56.93
2016-10-02T12:51:47.155Z,56.93
2016-10-02T12:52:56.866Z,56.73
2016-10-02T12:54:07.169Z,56.54
2016-10-02T12:55:17.462Z,56.61
2016-10-02T12:56:27.472Z,56.61
2016-10-02T12:57:37.768Z,56.51
2016-10-02T12:58:48.063Z,56.32
2016-10-02T12:59:58.401Z,56.9
2016-10-02T13:01:08.393Z,57.67
2016-10-02T13:02:18.391Z,57.48
2016-10-02T13:03:28.079Z,57.16
2016-10-02T13:04:38.060Z,57.54
2016-10-02T13:05:48.217Z,57.74
2016-10-02T13:06:58.556Z,58.03
2016-10-02T13:08:09.042Z,58.1
2016-10-02T13:09:19.358Z,57.71
2016-10-02T13:10:29.674Z,57.71
2016-10-02T13:11:39.972Z,57.81
2016-10-02T13:12:50.282Z,57.71
2016-10-02T13:14:00.619Z,57.81
2016-10-02T13:15:10.921Z,57.81
2016-10-02T13:16:20.610Z,57.81
2016-10-02T13:17:30.933Z,57.71
2016-10-02T13:18:41.236Z,58
2016-10-02T13:19:51.572Z,57.9
2016-10-02T13:21:01.877Z,57.68
2016-10-02T13:22:12.182Z,57.78
2016-10-02T13:23:22.488Z,57.87
2016-10-02T13:24:32.212Z,57.87
2016-10-02T13:25:41.890Z,57.87
2016-10-02T13:26:51.888Z,57.78
2016-10-02T13:28:01.899Z,57.87
2016-10-02T13:29:12.201Z,57.78
2016-10-02T13:30:22.502Z,57.59
2016-10-02T13:31:32.792Z,57.39
2016-10-02T13:32:43.088Z,57.39
2016-10-02T13:33:53.378Z,57.29
2016-10-02T13:35:03.371Z,57.29
2016-10-02T13:36:13.376Z,57.29
2016-10-02T13:37:23.673Z,57.29
2016-10-02T13:38:33.676Z,57.29
2016-10-02T13:39:43.757Z,57.1
2016-10-02T13:40:53.459Z,57.01
2016-10-02T13:42:03.761Z,57.39
2016-10-02T13:43:13.435Z,57.29
2016-10-02T13:44:23.762Z,57.49
2016-10-02T13:45:33.763Z,57.39
2016-10-02T13:46:44.057Z,57.29
2016-10-02T13:47:53.432Z,57.2
2016-10-02T13:49:03.430Z,57.27
2016-10-02T13:50:13.718Z,57.29
2016-10-02T13:51:23.711Z,57.27
2016-10-02T13:52:34.013Z,57.27
2016-10-02T13:53:43.687Z,57.56
2016-10-02T13:54:53.995Z,57.56
2016-10-02T13:56:04.307Z,57.27
2016-10-02T13:57:14.317Z,57.65
2016-10-02T13:58:24.315Z,58.04
2016-10-02T13:59:34.612Z,58.14
2016-10-02T14:00:44.923Z,57.85
2016-10-02T14:01:54.917Z,57.72
2016-10-02T14:03:05.217Z,57.92
2016-10-02T14:04:14.914Z,57.82
2016-10-02T14:05:24.590Z,57.82
2016-10-02T14:06:34.895Z,57.62
2016-10-02T14:07:44.898Z,58.01
2016-10-02T14:08:54.598Z,57.62
2016-10-02T14:10:04.918Z,57.34
2016-10-02T14:11:14.602Z,57.62
2016-10-02T14:12:24.915Z,57.72
2016-10-02T14:13:34.573Z,57.53
2016-10-02T14:14:44.879Z,57.72
2016-10-02T14:15:54.573Z,57.82
2016-10-02T14:17:04.573Z,58.11
2016-10-02T14:18:14.564Z,58.11
2016-10-02T14:19:24.561Z,57.72
2016-10-02T14:20:34.767Z,57.14
2016-10-02T14:21:44.796Z,57.34
2016-10-02T14:22:55.100Z,57.14
2016-10-02T14:24:05.098Z,57.34
2016-10-02T14:25:15.387Z,57.14
2016-10-02T14:26:25.684Z,57.24
2016-10-02T14:27:35.684Z,57.53
2016-10-02T14:28:45.976Z,57.53
2016-10-02T14:29:55.967Z,57.14
2016-10-02T14:31:06.292Z,57.24
2016-10-02T14:32:16.591Z,57.24
2016-10-02T14:33:26.591Z,57.62
2016-10-02T14:34:36.575Z,57.53
2016-10-02T14:35:46.886Z,57.34
2016-10-02T14:36:56.590Z,57.53
2016-10-02T14:38:06.595Z,57.34
2016-10-02T14:39:16.896Z,57.34
2016-10-02T14:40:27.205Z,57.34
2016-10-02T14:41:37.563Z,57.53
2016-10-02T14:42:47.836Z,57.53
2016-10-02T14:43:57.852Z,57.14
2016-10-02T14:45:07.839Z,57.14
2016-10-02T14:46:18.152Z,57.24
2016-10-02T14:47:28.123Z,57.34
2016-10-02T14:48:38.116Z,57.34
2016-10-02T14:49:47.823Z,57.34
2016-10-02T14:50:57.831Z,57.34
2016-10-02T14:52:08.069Z,57.24
2016-10-02T14:53:18.363Z,57.24
2016-10-02T14:54:27.738Z,57.24
2016-10-02T14:55:38.028Z,57.24
2016-10-02T14:56:48.031Z,57.24
2016-10-02T14:57:58.320Z,57.34
2016-10-02T14:59:08.332Z,57.43
2016-10-02T15:00:18.321Z,57.43
2016-10-02T15:01:28.639Z,57.34
2016-10-02T15:02:38.946Z,57.62
2016-10-02T15:03:48.953Z,58.11
2016-10-02T15:04:58.960Z,57.72
2016-10-02T15:06:09.264Z,58.2
2016-10-02T15:07:18.934Z,58.2
2016-10-02T15:08:29.239Z,57.82
2016-10-02T15:09:39.239Z,57.79
2016-10-02T15:10:48.919Z,57.89
2016-10-02T15:11:58.604Z,57.5
2016-10-02T15:13:08.907Z,57.5
2016-10-02T15:14:18.599Z,57.69
2016-10-02T15:15:28.287Z,57.6
2016-10-02T15:16:38.297Z,57.69
2016-10-02T15:17:48.607Z,57.69
2016-10-02T15:18:58.610Z,57.79
2016-10-02T15:20:08.941Z,57.79
2016-10-02T15:21:19.497Z,57.69
2016-10-02T15:22:29.810Z,57.5
2016-10-02T15:23:40.130Z,57.69
2016-10-02T15:24:50.499Z,57.79
2016-10-02T15:26:00.808Z,57.89
2016-10-02T15:27:10.816Z,57.6
2016-10-02T15:28:20.836Z,57.98
2016-10-02T15:29:31.152Z,57.28
2016-10-02T15:30:41.131Z,57.69
2016-10-02T15:31:50.836Z,57.69
2016-10-02T15:33:01.157Z,57.6
2016-10-02T15:34:11.155Z,57.79
2016-10-02T15:35:21.454Z,57.79
2016-10-02T15:36:31.755Z,57.6
2016-10-02T15:37:41.456Z,57.76
2016-10-02T15:38:50.837Z,57.57
2016-10-02T15:40:00.831Z,57.76
2016-10-02T15:41:10.836Z,57.95
2016-10-02T15:42:21.149Z,57.57